createdAt,value
2022-10-12T00:00:20.143Z,7.92
2022-10-12T00:02:47.738Z,8.00
2022-10-12T00:05:15.317Z,7.96
2022-10-12T00:07:44.270Z,7.86
2022-10-12T00:10:11.830Z,7.84
2022-10-12T00:12:39.437Z,7.78
2022-10-12T00:15:07.655Z,7.70
2022-10-12T00:17:35.493Z,7.72
2022-10-12T00:20:03.394Z,7.62
2022-10-12T00:22:30.965Z,7.65
2022-10-12T00:24:59.855Z,7.60
2022-10-12T00:27:27.413Z,7.56
2022-10-12T00:29:54.990Z,7.54
2022-10-12T00:32:22.547Z,7.53
2022-10-12T00:34:50.287Z,7.52
2022-10-12T00:37:17.847Z,7.43
2022-10-12T00:39:45.830Z,7.42
2022-10-12T00:42:14.819Z,7.39
2022-10-12T00:44:44.979Z,7.38
2022-10-12T00:47:21.235Z,7.34
2022-10-12T00:49:52.730Z,7.24
2022-10-12T00:52:24.107Z,7.22
2022-10-12T00:54:54.960Z,7.22
2022-10-12T00:57:25.702Z,7.17
2022-10-12T00:59:56.566Z,7.19
2022-10-12T01:02:26.982Z,7.22
2022-10-12T01:04:54.895Z,7.13
2022-10-12T01:07:22.515Z,7.16
2022-10-12T01:09:50.165Z,7.12
2022-10-12T01:12:18.377Z,7.08
2022-10-12T01:14:47.300Z,7.14
2022-10-12T01:17:25.209Z,7.16
2022-10-12T01:20:15.319Z,7.14
2022-10-12T01:22:49.346Z,7.16
2022-10-12T01:25:32.754Z,7.08
2022-10-12T01:28:07.802Z,7.10
2022-10-12T01:30:38.355Z,7.11
2022-10-12T01:33:25.270Z,7.09
2022-10-12T01:35:59.305Z,7.19
2022-10-12T01:38:41.780Z,7.14
2022-10-12T01:44:08.436Z,7.24
2022-10-12T01:46:45.747Z,7.20
2022-10-12T01:49:16.524Z,7.21
2022-10-12T01:52:22.438Z,7.25
2022-10-12T01:55:03.614Z,7.26
2022-10-12T01:57:36.629Z,7.24
2022-10-12T02:00:08.567Z,7.31
2022-10-12T02:02:48.269Z,7.33
2022-10-12T02:05:23.227Z,7.29
2022-10-12T02:07:55.882Z,7.27
2022-10-12T02:10:28.226Z,7.32
2022-10-12T02:12:59.772Z,7.28
2022-10-12T02:15:28.413Z,7.26
2022-10-12T02:17:58.841Z,7.26
2022-10-12T02:20:28.357Z,7.28
2022-10-12T02:22:56.124Z,7.22
2022-10-12T02:25:26.771Z,7.25
2022-10-12T02:28:00.062Z,7.21
2022-10-12T02:30:28.650Z,7.25
2022-10-12T02:33:03.445Z,7.22
2022-10-12T02:35:37.260Z,7.18
2022-10-12T02:38:10.666Z,7.16
2022-10-12T02:40:42.753Z,7.11
2022-10-12T02:43:17.858Z,7.18
2022-10-12T02:45:49.278Z,7.13
2022-10-12T02:48:23.135Z,7.10
2022-10-12T02:50:53.917Z,7.08
2022-10-12T02:53:22.374Z,7.05
2022-10-12T02:55:50.640Z,7.02
2022-10-12T02:58:18.809Z,6.98
2022-10-12T03:00:46.910Z,7.03
2022-10-12T03:03:14.481Z,7.03
2022-10-12T03:05:44.462Z,7.06
2022-10-12T03:08:12.027Z,7.05
2022-10-12T03:10:39.666Z,6.97
2022-10-12T03:13:07.312Z,6.94
2022-10-12T03:15:34.862Z,6.88
2022-10-12T03:18:02.459Z,6.93
2022-10-12T03:20:29.993Z,6.89
2022-10-12T03:22:58.853Z,6.84
2022-10-12T03:25:26.405Z,6.79
2022-10-12T03:27:53.979Z,6.78
2022-10-12T03:30:21.509Z,6.76
2022-10-12T03:32:49.036Z,6.87
2022-10-12T03:35:16.740Z,6.89
2022-10-12T03:37:44.274Z,6.89
2022-10-12T03:40:13.808Z,6.98
2022-10-12T03:42:41.422Z,6.99
2022-10-12T03:45:09.985Z,7.07
2022-10-12T03:47:38.342Z,7.11
2022-10-12T03:50:07.199Z,7.13
2022-10-12T03:52:35.070Z,7.16
2022-10-12T03:55:02.831Z,7.09
2022-10-12T03:57:31.709Z,7.03
2022-10-12T03:59:59.254Z,7.10
2022-10-12T04:02:26.837Z,7.11
2022-10-12T04:04:54.413Z,7.10
2022-10-12T04:07:21.975Z,7.13
2022-10-12T04:09:49.534Z,7.06
2022-10-12T04:12:17.085Z,7.08
2022-10-12T04:14:46.249Z,7.19
2022-10-12T04:17:15.761Z,7.32
2022-10-12T04:19:43.390Z,7.30
2022-10-12T04:22:11.185Z,7.31
2022-10-12T04:24:38.787Z,7.25
2022-10-12T04:27:06.355Z,7.23
2022-10-12T04:29:33.982Z,7.20
2022-10-12T04:32:02.867Z,7.20
2022-10-12T04:34:30.443Z,7.12
2022-10-12T04:36:57.987Z,7.14
2022-10-12T04:39:25.614Z,7.09
2022-10-12T04:41:53.167Z,7.10
2022-10-12T04:44:20.813Z,7.07
2022-10-12T04:46:48.443Z,7.03
2022-10-12T04:49:17.374Z,6.96
2022-10-12T04:51:44.981Z,6.96
2022-10-12T04:54:12.701Z,6.85
2022-10-12T04:56:43.108Z,6.85
2022-10-12T04:59:14.631Z,6.84
2022-10-12T05:01:42.267Z,6.76
2022-10-12T05:04:10.233Z,6.64
2022-10-12T05:06:39.123Z,6.68
2022-10-12T05:09:06.965Z,6.67
2022-10-12T05:11:34.867Z,6.75
2022-10-12T05:14:02.611Z,6.78
2022-10-12T05:16:30.175Z,6.71
2022-10-12T05:18:57.765Z,6.72
2022-10-12T05:21:25.335Z,6.83
2022-10-12T05:23:54.295Z,6.89
2022-10-12T05:26:21.899Z,6.75
2022-10-12T05:28:49.565Z,6.63
2022-10-12T05:31:17.160Z,6.72
2022-10-12T05:33:44.692Z,6.57
2022-10-12T05:36:12.258Z,6.67
2022-10-12T05:38:39.803Z,6.72
2022-10-12T05:41:09.189Z,6.67
2022-10-12T05:43:36.761Z,6.64
2022-10-12T05:46:04.843Z,6.65
2022-10-12T05:48:33.252Z,6.69
2022-10-12T05:51:00.993Z,6.63
2022-10-12T05:53:28.586Z,6.67
2022-10-12T05:55:58.018Z,6.57
2022-10-12T05:58:29.107Z,6.67
2022-10-12T06:00:57.114Z,6.64
2022-10-12T06:03:26.454Z,6.63
2022-10-12T06:05:54.277Z,6.62
2022-10-12T06:08:21.819Z,6.62
2022-10-12T06:10:52.181Z,6.56
2022-10-12T06:13:19.789Z,6.58
2022-10-12T06:15:49.730Z,6.59
2022-10-12T06:18:18.497Z,6.57
2022-10-12T06:20:56.456Z,6.52
2022-10-12T06:23:36.618Z,6.56
2022-10-12T06:26:04.360Z,6.62
2022-10-12T06:28:31.950Z,6.68
2022-10-12T06:31:01.566Z,6.65
2022-10-12T06:33:29.496Z,6.71
2022-10-12T06:35:57.851Z,6.70
2022-10-12T06:38:25.558Z,6.71
2022-10-12T06:40:53.610Z,6.71
2022-10-12T06:43:22.697Z,6.75
2022-10-12T06:45:50.295Z,6.86
2022-10-12T06:48:19.260Z,6.86
2022-10-12T06:50:48.082Z,6.84
2022-10-12T06:53:15.644Z,6.94
2022-10-12T06:55:43.252Z,6.91
2022-10-12T06:58:10.782Z,7.00
2022-10-12T07:00:38.749Z,7.03
2022-10-12T07:03:06.521Z,7.00
2022-10-12T07:05:35.451Z,6.88
2022-10-12T07:08:02.995Z,6.91
2022-10-12T07:10:30.575Z,7.03
2022-10-12T07:12:58.227Z,7.05
2022-10-12T07:15:26.461Z,7.09
2022-10-12T07:17:53.989Z,7.11
2022-10-12T07:20:21.835Z,7.17
2022-10-12T07:22:50.737Z,7.17
2022-10-12T07:25:18.284Z,7.20
2022-10-12T07:27:48.436Z,7.17
2022-10-12T07:30:16.218Z,7.15
2022-10-12T07:32:46.025Z,7.27
2022-10-12T07:35:13.601Z,7.37
2022-10-12T07:37:41.631Z,7.47
2022-10-12T07:40:11.582Z,7.67
2022-10-12T07:42:53.709Z,7.82
2022-10-12T07:45:28.703Z,8.03
2022-10-12T07:47:56.700Z,8.14
2022-10-12T07:50:25.186Z,8.20
2022-10-12T07:52:52.961Z,8.18
2022-10-12T07:55:21.846Z,8.22
2022-10-12T07:57:49.480Z,8.33
2022-10-12T08:00:17.655Z,8.32
2022-10-12T08:02:45.528Z,8.39
2022-10-12T08:05:13.139Z,8.63
2022-10-12T08:07:41.365Z,8.76
2022-10-12T08:10:09.487Z,9.57
2022-10-12T08:12:38.561Z,10.72
2022-10-12T08:15:07.173Z,11.65
2022-10-12T08:17:34.801Z,12.69
2022-10-12T08:20:02.337Z,13.06
2022-10-12T08:22:30.046Z,14.42
2022-10-12T08:24:57.639Z,14.18
2022-10-12T08:27:25.405Z,14.27
2022-10-12T08:29:54.287Z,15.25
2022-10-12T08:32:21.798Z,15.21
2022-10-12T08:34:49.358Z,15.76
2022-10-12T08:37:16.932Z,16.50
2022-10-12T08:39:44.495Z,15.36
2022-10-12T08:42:24.481Z,15.90
2022-10-12T08:45:10.059Z,17.13
2022-10-12T08:47:43.419Z,16.92
2022-10-12T08:50:19.274Z,17.23
2022-10-12T08:52:53.046Z,17.47
2022-10-12T08:55:26.745Z,18.07
2022-10-12T08:57:54.315Z,17.93
2022-10-12T09:00:23.644Z,17.53
2022-10-12T09:03:01.870Z,17.34
2022-10-12T09:05:35.787Z,16.97
2022-10-12T09:08:07.398Z,16.23
2022-10-12T09:10:45.882Z,16.14
2022-10-12T09:13:27.462Z,15.65
2022-10-12T09:16:01.041Z,15.76
2022-10-12T09:18:40.463Z,15.65
2022-10-12T09:21:12.496Z,15.11
2022-10-12T09:23:42.080Z,14.75
2022-10-12T09:26:16.691Z,14.99
2022-10-12T09:28:45.966Z,15.14
2022-10-12T09:31:32.771Z,15.34
2022-10-12T09:34:02.920Z,15.30
2022-10-12T09:36:35.154Z,15.32
2022-10-12T09:39:05.806Z,15.06
2022-10-12T09:41:37.622Z,15.63
2022-10-12T09:44:07.241Z,15.81
2022-10-12T09:46:42.134Z,16.38
2022-10-12T09:49:09.814Z,16.15
2022-10-12T09:51:37.896Z,16.10
2022-10-12T09:54:06.979Z,16.77
2022-10-12T09:56:39.750Z,16.00
2022-10-12T09:59:18.589Z,16.52
2022-10-12T10:02:04.406Z,16.66
2022-10-12T10:04:32.036Z,17.15
2022-10-12T10:07:15.073Z,17.21
2022-10-12T10:09:42.634Z,17.65
2022-10-12T10:12:21.110Z,17.29
2022-10-12T10:14:48.783Z,18.47
2022-10-12T10:17:26.022Z,19.57
2022-10-12T10:19:55.243Z,20.60
2022-10-12T10:22:24.097Z,20.62
2022-10-12T10:24:59.009Z,20.62
2022-10-12T10:27:32.048Z,20.13
2022-10-12T10:30:25.480Z,20.91
2022-10-12T10:33:15.432Z,20.47
2022-10-12T10:35:56.451Z,20.44
2022-10-12T10:38:24.202Z,21.47
2022-10-12T10:40:52.490Z,21.88
2022-10-12T10:43:24.837Z,22.01
2022-10-12T10:45:54.915Z,20.62
2022-10-12T10:48:28.427Z,19.31
2022-10-12T10:51:00.238Z,18.93
2022-10-12T10:53:31.126Z,18.61
2022-10-12T10:56:04.798Z,18.15
2022-10-12T10:58:36.319Z,17.81
2022-10-12T11:01:11.470Z,17.75
2022-10-12T11:03:52.234Z,17.90
2022-10-12T11:06:30.980Z,18.12
2022-10-12T11:09:03.770Z,17.90
2022-10-12T11:11:35.847Z,18.69
2022-10-12T11:14:12.275Z,19.00
2022-10-12T11:16:44.744Z,18.85
2022-10-12T11:19:23.230Z,18.74
2022-10-12T11:21:54.946Z,19.11
2022-10-12T11:24:27.756Z,20.15
2022-10-12T11:27:02.739Z,20.51
2022-10-12T11:29:30.426Z,21.21
2022-10-12T11:32:04.094Z,22.13
2022-10-12T11:34:41.791Z,22.16
2022-10-12T11:37:20.970Z,22.79
2022-10-12T11:39:53.533Z,23.27
2022-10-12T11:42:28.598Z,23.15
2022-10-12T11:44:56.437Z,23.92
2022-10-12T11:47:35.515Z,23.70
2022-10-12T11:50:08.361Z,23.99
2022-10-12T11:52:40.751Z,23.47
2022-10-12T11:55:27.874Z,24.01
2022-10-12T11:57:59.292Z,24.16
2022-10-12T12:00:36.242Z,23.56
2022-10-12T12:03:16.999Z,23.70
2022-10-12T12:05:46.236Z,23.29
2022-10-12T12:08:22.678Z,23.33
2022-10-12T12:11:03.330Z,24.03
2022-10-12T12:13:30.939Z,23.53
2022-10-12T12:16:35.646Z,24.24
2022-10-12T12:19:32.532Z,24.07
2022-10-12T12:22:23.340Z,24.73
2022-10-12T12:24:57.694Z,24.70
2022-10-12T12:27:32.595Z,24.54
2022-10-12T12:30:02.549Z,24.01
2022-10-12T12:32:44.194Z,24.62
2022-10-12T12:35:22.371Z,24.51
2022-10-12T12:38:02.455Z,25.06
2022-10-12T12:40:30.749Z,22.77
2022-10-12T12:43:36.511Z,23.05
2022-10-12T12:46:06.298Z,22.60
2022-10-12T12:49:02.705Z,22.23
2022-10-12T12:51:43.543Z,23.00
2022-10-12T12:54:21.065Z,23.28
2022-10-12T12:57:24.442Z,22.88
2022-10-12T13:00:20.023Z,24.06
2022-10-12T13:03:33.901Z,24.11
2022-10-12T13:06:37.974Z,23.83
2022-10-12T13:09:40.262Z,22.53
2022-10-12T13:12:37.441Z,23.05
2022-10-12T13:15:29.897Z,22.94
2022-10-12T13:18:23.327Z,22.69
2022-10-12T13:21:01.875Z,21.94
2022-10-12T13:23:29.684Z,21.94
2022-10-12T13:26:03.866Z,22.47
2022-10-12T13:28:35.165Z,21.85
2022-10-12T13:31:06.206Z,21.98
2022-10-12T13:33:38.456Z,21.70
2022-10-12T13:36:14.104Z,21.01
2022-10-12T13:38:41.646Z,20.62
2022-10-12T13:41:13.153Z,20.88
2022-10-12T13:44:30.626Z,20.69
2022-10-12T13:47:01.828Z,20.90
2022-10-12T13:49:34.321Z,20.64
2022-10-12T13:52:10.374Z,20.53
2022-10-12T13:54:40.407Z,20.77
2022-10-12T13:57:18.434Z,20.45
2022-10-12T13:59:47.972Z,20.63
2022-10-12T14:02:22.839Z,20.45
2022-10-12T14:04:54.539Z,20.27
2022-10-12T14:07:25.237Z,20.24
2022-10-12T14:09:58.193Z,19.85
2022-10-12T14:12:30.021Z,19.76
2022-10-12T14:14:58.367Z,19.75
2022-10-12T14:17:26.275Z,19.62
2022-10-12T14:19:55.370Z,19.54
2022-10-12T14:22:27.045Z,19.56
2022-10-12T14:25:09.591Z,19.83
2022-10-12T14:27:40.761Z,19.55
2022-10-12T14:30:18.661Z,19.59
2022-10-12T14:32:46.227Z,19.24
2022-10-12T14:35:26.242Z,19.08
2022-10-12T14:37:55.909Z,19.62
2022-10-12T14:40:34.102Z,19.74
2022-10-12T14:43:07.834Z,19.84
2022-10-12T14:45:36.182Z,20.25
2022-10-12T14:48:05.416Z,20.70
2022-10-12T14:50:33.494Z,20.76
2022-10-12T14:53:03.897Z,20.72
2022-10-12T14:55:33.533Z,20.63
2022-10-12T14:58:03.684Z,20.00
2022-10-12T15:00:33.442Z,20.08
2022-10-12T15:03:01.614Z,20.08
2022-10-12T15:05:31.705Z,19.83
2022-10-12T15:07:59.826Z,19.63
2022-10-12T15:10:28.451Z,19.78
2022-10-12T15:12:56.042Z,19.00
2022-10-12T15:15:33.430Z,18.58
2022-10-12T15:18:01.343Z,19.18
2022-10-12T15:20:30.538Z,19.03
2022-10-12T15:22:58.613Z,18.89
2022-10-12T15:25:35.626Z,18.58
2022-10-12T15:28:03.829Z,18.47
2022-10-12T15:30:33.103Z,18.84
2022-10-12T15:33:00.773Z,18.47
2022-10-12T15:35:30.217Z,18.77
2022-10-12T15:37:57.747Z,18.43
2022-10-12T15:40:28.026Z,18.48
2022-10-12T15:42:55.666Z,18.09
2022-10-12T15:45:25.633Z,18.20
2022-10-12T15:47:55.783Z,17.97
2022-10-12T15:50:28.773Z,17.80
2022-10-12T15:52:56.556Z,17.74
2022-10-12T15:55:26.828Z,17.77
2022-10-12T15:57:55.231Z,18.00
2022-10-12T16:00:25.873Z,17.59
2022-10-12T16:02:55.965Z,17.52
2022-10-12T16:05:25.674Z,17.32
2022-10-12T16:07:53.973Z,17.18
2022-10-12T16:10:23.580Z,17.44
2022-10-12T16:12:52.894Z,17.47
2022-10-12T16:15:23.222Z,17.32
2022-10-12T16:17:51.355Z,17.21
2022-10-12T16:20:20.272Z,17.02
2022-10-12T16:22:48.828Z,16.71
2022-10-12T16:25:17.885Z,16.66
2022-10-12T16:27:46.302Z,16.50
2022-10-12T16:30:15.461Z,16.19
2022-10-12T16:32:43.028Z,16.06
2022-10-12T16:35:11.140Z,15.68
2022-10-12T16:37:40.012Z,15.32
2022-10-12T16:40:09.221Z,15.31
2022-10-12T16:42:37.251Z,15.09
2022-10-12T16:45:05.345Z,15.04
2022-10-12T16:47:33.163Z,15.06
2022-10-12T16:50:00.717Z,14.87
2022-10-12T16:52:28.256Z,14.66
2022-10-12T16:54:57.214Z,14.50
2022-10-12T16:57:25.232Z,14.40
2022-10-12T16:59:52.881Z,14.27
2022-10-12T17:02:21.034Z,14.14
2022-10-12T17:04:48.717Z,14.09
2022-10-12T17:07:16.617Z,13.99
2022-10-12T17:09:44.153Z,13.89
2022-10-12T17:12:13.839Z,13.72
2022-10-12T17:14:41.596Z,13.66
2022-10-12T17:17:09.254Z,13.60
2022-10-12T17:19:39.876Z,13.46
2022-10-12T17:22:08.829Z,13.38
2022-10-12T17:24:38.441Z,13.30
2022-10-12T17:27:07.971Z,13.22
2022-10-12T17:29:39.498Z,13.11
2022-10-12T17:32:07.916Z,13.03
2022-10-12T17:34:37.829Z,13.00
2022-10-12T17:37:06.208Z,12.95
2022-10-12T17:39:36.814Z,12.95
2022-10-12T17:42:04.576Z,12.81
2022-10-12T17:44:32.269Z,12.71
2022-10-12T17:47:01.161Z,12.81
2022-10-12T17:49:29.612Z,12.82
2022-10-12T17:51:57.455Z,12.67
2022-10-12T17:54:26.584Z,12.68
2022-10-12T17:56:55.986Z,12.64
2022-10-12T17:59:23.995Z,12.57
2022-10-12T18:01:52.282Z,12.61
2022-10-12T18:04:22.059Z,12.53
2022-10-12T18:06:50.294Z,12.53
2022-10-12T18:09:18.063Z,12.48
2022-10-12T18:11:46.059Z,12.46
2022-10-12T18:14:14.259Z,12.39
2022-10-12T18:16:42.375Z,12.43
2022-10-12T18:19:11.746Z,12.35
2022-10-12T18:21:41.543Z,12.36
2022-10-12T18:24:16.375Z,12.27
2022-10-12T18:26:45.910Z,12.22
2022-10-12T18:29:13.902Z,12.19
2022-10-12T18:31:41.778Z,12.11
2022-10-12T18:34:09.968Z,12.09
2022-10-12T18:36:38.575Z,12.13
2022-10-12T18:39:07.599Z,12.06
2022-10-12T18:41:35.463Z,12.14
2022-10-12T18:44:03.658Z,12.05
2022-10-12T18:46:34.050Z,12.01
2022-10-12T18:49:02.758Z,12.02
2022-10-12T18:51:33.187Z,12.01
2022-10-12T18:54:02.960Z,11.97
2022-10-12T18:56:34.013Z,11.90
2022-10-12T18:59:02.197Z,11.91
2022-10-12T19:01:31.267Z,11.93
2022-10-12T19:04:00.649Z,11.87
2022-10-12T19:06:30.549Z,11.87
2022-10-12T19:08:59.645Z,11.82
2022-10-12T19:11:29.434Z,11.82
2022-10-12T19:14:00.627Z,11.75
2022-10-12T19:16:29.749Z,11.66
2022-10-12T19:18:58.954Z,11.67
2022-10-12T19:21:27.419Z,11.60
2022-10-12T19:23:55.613Z,11.60
2022-10-12T19:26:26.064Z,11.52
2022-10-12T19:28:56.119Z,11.51
2022-10-12T19:31:27.854Z,11.44
2022-10-12T19:33:56.829Z,11.34
2022-10-12T19:36:24.786Z,11.30
2022-10-12T19:38:52.522Z,11.29
2022-10-12T19:41:20.124Z,11.28
2022-10-12T19:43:47.653Z,11.36
2022-10-12T19:46:15.256Z,11.36
2022-10-12T19:48:48.168Z,11.40
2022-10-12T19:51:15.699Z,11.30
2022-10-12T19:53:44.725Z,11.31
2022-10-12T19:56:14.572Z,11.37
2022-10-12T19:58:42.961Z,11.37
2022-10-12T20:01:13.132Z,11.35
2022-10-12T20:03:45.375Z,11.35
2022-10-12T20:06:17.230Z,11.35
2022-10-12T20:08:46.450Z,11.30
2022-10-12T20:11:21.393Z,11.25
2022-10-12T20:13:52.271Z,11.21
2022-10-12T20:16:21.059Z,11.19
2022-10-12T20:18:49.648Z,11.23
2022-10-12T20:21:20.825Z,11.17
2022-10-12T20:23:49.295Z,11.18
2022-10-12T20:26:19.092Z,11.11
2022-10-12T20:28:46.799Z,11.11
2022-10-12T20:31:14.569Z,11.06
2022-10-12T20:33:42.372Z,11.03
2022-10-12T20:36:11.550Z,10.95
2022-10-12T20:38:40.778Z,10.91
2022-10-12T20:41:10.258Z,10.91
2022-10-12T20:43:39.619Z,10.95
2022-10-12T20:46:08.618Z,10.97
2022-10-12T20:48:38.323Z,10.98
2022-10-12T20:51:06.617Z,11.05
2022-10-12T20:53:34.521Z,10.96
2022-10-12T20:56:06.145Z,10.91
2022-10-12T20:58:33.674Z,10.87
2022-10-12T21:01:05.734Z,10.86
2022-10-12T21:03:33.406Z,10.92
2022-10-12T21:06:03.748Z,10.95
2022-10-12T21:08:31.449Z,10.91
2022-10-12T21:10:59.642Z,10.92
2022-10-12T21:13:30.862Z,10.87
2022-10-12T21:15:58.462Z,10.82
2022-10-12T21:18:26.545Z,10.78
2022-10-12T21:20:56.323Z,10.74
2022-10-12T21:23:24.240Z,10.70
2022-10-12T21:25:52.342Z,10.74
2022-10-12T21:28:21.080Z,10.72
2022-10-12T21:30:50.437Z,10.62
2022-10-12T21:33:19.297Z,10.60
2022-10-12T21:35:46.845Z,10.58
2022-10-12T21:38:14.669Z,10.60
2022-10-12T21:40:42.230Z,10.63
2022-10-12T21:43:09.766Z,10.68
2022-10-12T21:45:37.361Z,10.63
2022-10-12T21:48:06.869Z,10.64
2022-10-12T21:50:34.871Z,10.66
2022-10-12T21:53:02.814Z,10.68
2022-10-12T21:55:30.449Z,10.67
2022-10-12T21:57:57.958Z,10.67
2022-10-12T22:00:26.062Z,10.66
2022-10-12T22:02:53.685Z,10.75
2022-10-12T22:05:22.647Z,10.72
2022-10-12T22:07:50.155Z,10.66
2022-10-12T22:10:17.866Z,10.69
2022-10-12T22:12:45.377Z,10.65
2022-10-12T22:15:12.946Z,10.66
2022-10-12T22:17:40.498Z,10.65
2022-10-12T22:20:08.939Z,10.66
2022-10-12T22:22:37.822Z,10.71
2022-10-12T22:25:05.890Z,10.70
2022-10-12T22:27:33.429Z,10.76
2022-10-12T22:30:00.989Z,10.74
2022-10-12T22:32:28.694Z,10.76
2022-10-12T22:34:56.226Z,10.70
2022-10-12T22:37:24.094Z,10.66
2022-10-12T22:39:52.994Z,10.64
2022-10-12T22:42:20.849Z,10.70
2022-10-12T22:44:48.591Z,10.65
2022-10-12T22:47:16.158Z,10.57
2022-10-12T22:49:43.791Z,10.54
2022-10-12T22:52:11.374Z,10.60
2022-10-12T22:54:38.900Z,10.58
2022-10-12T22:57:08.104Z,10.62
2022-10-12T22:59:35.833Z,10.63
2022-10-12T23:02:03.366Z,10.66
2022-10-12T23:04:30.902Z,10.65
2022-10-12T23:06:58.425Z,10.62
2022-10-12T23:09:25.975Z,10.66
2022-10-12T23:11:53.527Z,10.67
2022-10-12T23:14:22.481Z,10.63
2022-10-12T23:16:50.031Z,10.60
2022-10-12T23:19:17.545Z,10.58
2022-10-12T23:21:45.103Z,10.54
2022-10-12T23:24:12.645Z,10.59
2022-10-12T23:26:40.282Z,10.57
2022-10-12T23:29:07.894Z,10.57
2022-10-12T23:31:36.856Z,10.62
2022-10-12T23:34:06.565Z,10.61
2022-10-12T23:36:35.156Z,10.60
2022-10-12T23:39:03.624Z,10.59
2022-10-12T23:41:31.232Z,10.61
2022-10-12T23:43:58.895Z,10.62
2022-10-12T23:46:26.523Z,10.77
2022-10-12T23:48:55.453Z,10.87
2022-10-12T23:51:23.131Z,10.93
2022-10-12T23:53:50.682Z,10.98
2022-10-12T23:56:18.321Z,10.96
2022-10-12T23:58:45.861Z,10.91
